Time;durP1;ratioP1;P1;durP2;ratioP2;P2;SDS_P1;SDS_P2;PMS_P1;PMS_P2;Temp;Humidity;BMP_temperature;BMP_pressure;BME280_temperature;BME280_humidity;BME280_pressure;Samples;Min_cycle;Max_cycle;Signal;HPM_P1;HPM_P2
2022/02/07 00:03:48;;;;;;;1.00;0.37;;;3.10;99.90;;;;;;4986586;28;20259;-78
2022/02/07 00:06:14;;;;;;;0.47;0.30;;;3.00;99.90;;;;;;4986212;28;20179;-77
2022/02/07 00:08:41;;;;;;;1.07;0.33;;;3.00;99.90;;;;;;4987132;28;20232;-78
2022/02/07 00:11:06;;;;;;;1.83;0.57;;;3.10;99.90;;;;;;4970719;28;20917;-78
2022/02/07 00:13:32;;;;;;;1.27;0.50;;;3.10;99.90;;;;;;4970366;28;20284;-79
2022/02/07 00:15:58;;;;;;;0.97;0.53;;;3.00;99.90;;;;;;4970705;28;20176;-79
2022/02/07 00:18:24;;;;;;;0.50;0.40;;;3.10;99.90;;;;;;4986952;28;20228;-78
2022/02/07 00:20:50;;;;;;;4.23;0.57;;;3.00;99.90;;;;;;4988026;28;20658;-78
2022/02/07 00:23:15;;;;;;;0.70;0.63;;;3.00;99.90;;;;;;4987679;28;20184;-79
2022/02/07 00:25:41;;;;;;;1.83;0.30;;;2.90;99.90;;;;;;4987834;28;20254;-79
2022/02/07 00:28:07;;;;;;;0.77;0.43;;;2.80;99.90;;;;;;4987938;28;20221;-79
2022/02/07 00:30:33;;;;;;;1.40;0.60;;;2.70;99.90;;;;;;4969110;28;20334;-79
2022/02/07 00:32:59;;;;;;;1.00;0.50;;;2.60;99.90;;;;;;4987062;28;20574;-77
2022/02/07 00:35:25;;;;;;;1.73;0.83;;;2.50;99.90;;;;;;4987792;28;20188;-78
2022/02/07 00:37:54;;;;;;;1.43;0.50;;;2.40;99.90;;;;;;4974461;28;20224;-79
2022/02/07 00:43:01;;;;;;;1.93;0.40;;;2.30;99.90;;;;;;4997577;28;20187;-79
2022/02/07 00:48:00;;;;;;;1.90;0.40;;;2.30;99.90;;;;;;4996634;28;20215;-79
2022/02/07 00:50:27;;;;;;;1.93;0.57;;;2.20;99.90;;;;;;4997167;28;20271;-77
2022/02/07 00:52:53;;;;;;;2.17;0.40;;;2.20;99.90;;;;;;4996523;28;20654;-76
2022/02/07 00:55:18;;;;;;;1.97;0.47;;;2.10;99.90;;;;;;4979984;28;20195;-78
2022/02/07 00:57:44;;;;;;;1.23;0.60;;;2.00;99.90;;;;;;4996867;28;20204;-77
2022/02/07 01:00:10;;;;;;;3.20;0.50;;;2.00;99.90;;;;;;4979230;28;20184;-79
2022/02/07 01:02:36;;;;;;;2.00;0.50;;;1.90;99.90;;;;;;4978887;28;20184;-79
2022/02/07 01:05:03;;;;;;;0.50;0.37;;;1.80;99.90;;;;;;4980157;28;20180;-77
2022/02/07 01:07:30;;;;;;;1.90;0.40;;;1.90;99.90;;;;;;4995190;28;20247;-78
2022/02/07 01:09:56;;;;;;;1.60;0.50;;;1.90;99.90;;;;;;4996887;28;20184;-79
2022/02/07 01:12:59;;;;;;;1.43;0.33;;;1.80;99.90;;;;;;4996344;28;20283;-78
2022/02/07 01:46:06;;;;;;;2.80;0.50;;;1.80;99.90;;;;;;4920152;29;20283;-76
2022/02/07 01:53:47;;;;;;;2.00;0.43;;;2.00;99.90;;;;;;4995114;28;20188;-77
2022/02/07 01:56:13;;;;;;;1.07;0.50;;;2.10;99.90;;;;;;4994912;28;20588;-77
2022/02/07 01:58:38;;;;;;;2.50;0.50;;;2.10;99.90;;;;;;4996783;28;20303;-78
2022/02/07 02:01:04;;;;;;;1.87;0.40;;;2.20;99.90;;;;;;4978788;28;20188;-79
2022/02/07 02:03:29;;;;;;;3.40;0.67;;;2.10;99.90;;;;;;4998491;28;20188;-75
2022/02/07 02:05:56;;;;;;;0.40;0.30;;;2.20;99.90;;;;;;4982612;28;20196;-78
2022/02/07 02:08:22;;;;;;;1.63;0.40;;;2.10;99.90;;;;;;4999447;28;20208;-78
2022/02/07 02:10:52;;;;;;;2.23;0.53;;;2.20;99.90;;;;;;4999986;28;20184;-79
2022/02/07 02:13:23;;;;;;;2.13;0.60;;;2.10;99.90;;;;;;4982254;28;20661;-79
2022/02/07 02:35:15;;;;;;;1.00;0.60;;;2.10;99.90;;;;;;4999749;28;20258;-79
2022/02/07 02:37:28;;;;;;;1.67;0.50;;;2.20;99.90;;;;;;4998313;28;20211;-78
2022/02/07 02:47:50;;;;;;;4.60;0.70;;;2.30;99.90;;;;;;5004275;28;20235;-76
2022/02/07 02:50:37;;;;;;;2.87;0.43;;;2.30;99.90;;;;;;4993657;28;20186;-76
2022/02/07 02:53:13;;;;;;;3.70;0.67;;;2.30;99.90;;;;;;4999860;28;20195;-76
2022/02/07 02:55:43;;;;;;;2.13;0.70;;;2.30;99.90;;;;;;5000240;28;20176;-77
2022/02/07 02:58:12;;;;;;;0.93;0.40;;;2.30;99.90;;;;;;4998707;28;20208;-77
2022/02/07 03:00:40;;;;;;;3.47;0.53;;;2.20;99.90;;;;;;4999731;28;20187;-77
2022/02/07 03:03:05;;;;;;;2.17;0.50;;;2.20;99.90;;;;;;4999751;28;20188;-77
2022/02/07 03:05:31;;;;;;;3.13;0.60;;;2.20;99.90;;;;;;4982381;28;20184;-76
2022/02/07 03:07:57;;;;;;;2.37;0.60;;;2.20;99.90;;;;;;4982452;28;20212;-79
2022/02/07 03:10:45;;;;;;;3.30;0.50;;;2.20;99.90;;;;;;4999178;28;20255;-77
2022/02/07 03:18:21;;;;;;;1.93;0.60;;;2.30;99.90;;;;;;4998330;28;20242;-76
2022/02/07 03:20:47;;;;;;;4.43;1.00;;;2.40;99.90;;;;;;4999656;28;20180;-79
2022/02/07 03:23:13;;;;;;;1.03;0.50;;;2.40;99.90;;;;;;4981357;28;20624;-78
2022/02/07 03:25:39;;;;;;;3.13;0.60;;;2.40;99.90;;;;;;4999580;28;20183;-77
2022/02/07 03:28:05;;;;;;;1.80;0.60;;;2.40;99.90;;;;;;4998119;28;20263;-79
2022/02/07 03:30:30;;;;;;;4.07;0.53;;;2.40;99.90;;;;;;4999104;28;20184;-80
2022/02/07 03:32:56;;;;;;;3.77;0.70;;;2.40;99.90;;;;;;4998301;28;20219;-76
2022/02/07 03:35:22;;;;;;;2.87;0.70;;;2.40;99.90;;;;;;4999161;28;20251;-76
2022/02/07 03:37:48;;;;;;;4.23;0.83;;;2.40;99.90;;;;;;4980863;28;20216;-79
2022/02/07 03:40:14;;;;;;;2.97;0.57;;;2.40;99.90;;;;;;4999531;28;20184;-79
2022/02/07 03:42:40;;;;;;;2.20;0.87;;;2.40;99.90;;;;;;4981536;28;20238;-78
2022/02/07 03:45:06;;;;;;;0.97;0.50;;;2.40;99.90;;;;;;4998817;28;20215;-79
2022/02/07 03:47:32;;;;;;;3.90;0.90;;;2.50;99.90;;;;;;4976770;28;20220;-77
2022/02/07 03:49:58;;;;;;;1.70;0.50;;;2.60;99.90;;;;;;4993547;28;20721;-78
2022/02/07 03:52:24;;;;;;;0.60;0.50;;;2.50;99.90;;;;;;4992312;28;20200;-76
2022/02/07 03:54:49;;;;;;;2.70;0.57;;;2.50;99.90;;;;;;4990269;28;20192;-77
2022/02/07 03:57:16;;;;;;;1.23;0.53;;;2.50;99.90;;;;;;4970999;28;20266;-77
2022/02/07 03:59:42;;;;;;;3.93;0.50;;;2.60;99.90;;;;;;4987199;28;20181;-77
2022/02/07 04:02:08;;;;;;;1.93;0.90;;;2.50;99.90;;;;;;4987148;28;20307;-79
2022/02/07 04:04:34;;;;;;;2.40;0.73;;;2.50;99.90;;;;;;4997100;28;20188;-77
2022/02/07 04:06:59;;;;;;;4.27;0.50;;;2.50;99.90;;;;;;4997897;28;20199;-77
2022/02/07 04:09:32;;;;;;;1.30;0.57;;;2.50;99.90;;;;;;4998122;28;20187;-75
2022/02/07 04:12:04;;;;;;;1.23;0.50;;;2.50;99.90;;;;;;4979715;28;20250;-78
2022/02/07 04:14:30;;;;;;;0.73;0.50;;;2.60;99.90;;;;;;4997519;28;20180;-78
2022/02/07 04:16:56;;;;;;;3.53;0.73;;;2.60;99.90;;;;;;4980249;28;20261;-77
2022/02/07 04:19:29;;;;;;;3.40;0.70;;;2.50;99.90;;;;;;4997417;28;20211;-79
2022/02/07 04:21:55;;;;;;;2.20;0.73;;;2.60;99.90;;;;;;4996889;28;20187;-78
2022/02/07 04:24:20;;;;;;;2.33;0.80;;;2.50;99.90;;;;;;4980422;28;20215;-78
2022/02/07 04:26:46;;;;;;;3.60;0.60;;;2.40;99.90;;;;;;4996864;28;20184;-76
2022/02/07 04:29:11;;;;;;;2.27;0.77;;;2.40;99.90;;;;;;4996075;28;20184;-79
2022/02/07 04:31:38;;;;;;;3.43;1.27;;;2.40;99.90;;;;;;4991746;28;20227;-80
2022/02/07 04:34:03;;;;;;;4.37;1.13;;;2.50;99.90;;;;;;4974821;28;20234;-80
2022/02/07 04:36:29;;;;;;;2.60;0.67;;;2.40;99.90;;;;;;4975563;28;20401;-80
2022/02/07 04:38:55;;;;;;;3.40;0.70;;;2.40;99.90;;;;;;4993385;28;20211;-79
2022/02/07 04:41:22;;;;;;;3.80;0.50;;;2.40;99.90;;;;;;4992197;28;20180;-80
2022/02/07 04:43:53;;;;;;;5.53;0.90;;;2.40;99.90;;;;;;4975459;28;20180;-78
2022/02/07 04:51:55;;;;;;;4.23;0.80;;;2.40;99.90;;;;;;4991834;28;20184;-80
2022/02/07 04:57:09;;;;;;;2.73;0.87;;;2.20;99.90;;;;;;4991505;28;20436;-80
2022/02/07 05:02:28;;;;;;;2.20;0.70;;;2.00;99.90;;;;;;4991225;28;20247;-77
2022/02/07 05:15:51;;;;;;;4.23;0.63;;;2.30;99.90;;;;;;4990538;28;20960;-76
2022/02/07 05:18:18;;;;;;;2.73;0.77;;;2.30;99.90;;;;;;4972700;28;20275;-80
2022/02/07 05:20:44;;;;;;;3.00;0.77;;;2.30;99.90;;;;;;4989246;28;20176;-79
2022/02/07 05:23:09;;;;;;;2.33;0.60;;;2.30;99.90;;;;;;4973069;28;20185;-80
2022/02/07 05:25:35;;;;;;;1.63;0.80;;;2.30;99.90;;;;;;4989962;28;20240;-75
2022/02/07 05:28:00;;;;;;;4.30;1.17;;;2.30;99.90;;;;;;4972204;28;20200;-76
2022/02/07 05:30:26;;;;;;;2.73;0.60;;;2.30;99.90;;;;;;4990140;28;20194;-80
2022/02/07 05:32:51;;;;;;;6.20;1.10;;;2.30;99.90;;;;;;4973323;28;20399;-78
2022/02/07 05:35:17;;;;;;;2.30;0.80;;;2.30;99.90;;;;;;4990767;28;20192;-80
2022/02/07 05:37:43;;;;;;;2.63;0.77;;;2.40;99.90;;;;;;4974073;28;20208;-79
2022/02/07 05:40:17;;;;;;;3.83;1.00;;;2.50;99.90;;;;;;4993854;28;20298;-77
2022/02/07 05:42:42;;;;;;;2.93;0.90;;;2.60;99.90;;;;;;4993516;28;20179;-80
2022/02/07 05:45:08;;;;;;;6.67;1.27;;;2.60;99.90;;;;;;4976628;28;20180;-80
2022/02/07 05:47:35;;;;;;;1.60;0.63;;;2.60;99.90;;;;;;4993173;28;20254;-76
2022/02/07 05:50:03;;;;;;;4.80;1.07;;;2.70;99.90;;;;;;4975577;28;20198;-80
2022/02/07 05:52:28;;;;;;;3.43;1.10;;;2.80;99.90;;;;;;4975453;28;20328;-80
2022/02/07 05:54:54;;;;;;;1.70;0.70;;;2.80;99.90;;;;;;4993614;28;20192;-75
2022/02/07 05:57:20;;;;;;;3.43;1.00;;;2.80;99.90;;;;;;4975902;28;20214;-79
2022/02/07 05:59:45;;;;;;;3.07;0.80;;;2.70;99.90;;;;;;4993749;28;20479;-79
2022/02/07 06:02:11;;;;;;;2.03;0.80;;;2.80;99.90;;;;;;4992958;28;20528;-80
2022/02/07 06:04:36;;;;;;;3.27;0.97;;;2.80;99.90;;;;;;4992845;28;20192;-81
2022/02/07 06:07:02;;;;;;;6.57;1.33;;;2.90;99.90;;;;;;4992667;28;20211;-78
2022/02/07 06:09:28;;;;;;;4.80;1.00;;;2.90;99.90;;;;;;4992626;28;20192;-78
2022/02/07 06:11:55;;;;;;;4.73;1.07;;;2.90;99.90;;;;;;4992511;28;20670;-81
2022/02/07 06:14:20;;;;;;;5.37;1.00;;;3.00;99.90;;;;;;4974385;28;20195;-79
2022/02/07 06:16:46;;;;;;;4.30;0.83;;;3.00;99.90;;;;;;4992046;28;20192;-80
2022/02/07 06:19:12;;;;;;;4.63;1.17;;;3.10;99.90;;;;;;4975267;28;20219;-80
2022/02/07 06:21:38;;;;;;;5.13;1.30;;;3.10;99.90;;;;;;4996409;28;20555;-76
2022/02/07 06:24:04;;;;;;;5.10;1.47;;;3.10;99.90;;;;;;4992580;28;20700;-78
2022/02/07 06:26:30;;;;;;;5.63;1.40;;;3.20;99.90;;;;;;4989688;28;20211;-77
2022/02/07 06:28:58;;;;;;;5.40;1.33;;;3.20;99.90;;;;;;5009186;28;20215;-75
2022/02/07 06:31:24;;;;;;;7.00;1.67;;;3.20;99.90;;;;;;5007184;28;20184;-76
2022/02/07 06:33:50;;;;;;;7.17;1.30;;;3.20;99.90;;;;;;5009994;28;20196;-77
2022/02/07 06:36:17;;;;;;;3.70;1.00;;;3.10;99.90;;;;;;4992188;28;20188;-77
2022/02/07 06:38:42;;;;;;;5.70;1.50;;;3.10;99.90;;;;;;5009285;28;20843;-77
2022/02/07 06:41:08;;;;;;;3.60;1.30;;;3.10;99.90;;;;;;5010738;28;20180;-75
2022/02/07 06:43:33;;;;;;;4.10;1.03;;;3.10;99.90;;;;;;4991761;28;20213;-75
2022/02/07 06:45:59;;;;;;;5.27;1.03;;;3.10;99.90;;;;;;5007622;28;20196;-76
2022/02/07 06:48:28;;;;;;;6.00;1.30;;;3.20;99.90;;;;;;5007875;28;20211;-78
2022/02/07 06:50:54;;;;;;;6.33;1.20;;;3.10;99.90;;;;;;4992152;28;20196;-76
2022/02/07 06:53:19;;;;;;;5.43;1.50;;;3.20;99.90;;;;;;4990162;28;20184;-78
2022/02/07 06:55:46;;;;;;;9.20;1.47;;;3.20;99.90;;;;;;4993542;28;20312;-79
2022/02/07 06:58:12;;;;;;;4.40;1.27;;;3.20;99.90;;;;;;4991620;28;20243;-80
2022/02/07 07:00:37;;;;;;;7.20;1.43;;;3.20;99.90;;;;;;4992205;28;20192;-77
2022/02/07 07:03:03;;;;;;;5.53;1.67;;;3.20;99.90;;;;;;4973234;28;20512;-80
2022/02/07 07:05:29;;;;;;;4.63;0.80;;;3.20;99.90;;;;;;4992048;28;20726;-77
2022/02/07 07:07:55;;;;;;;9.17;1.17;;;3.10;99.90;;;;;;4974041;28;20224;-80
2022/02/07 07:10:21;;;;;;;6.33;1.20;;;3.10;99.90;;;;;;4991707;28;20239;-78
2022/02/07 07:12:50;;;;;;;3.97;1.13;;;3.20;99.90;;;;;;4974241;28;20653;-79
2022/02/07 07:15:27;;;;;;;5.17;1.10;;;3.20;99.90;;;;;;4991445;28;20191;-80
2022/02/07 07:17:53;;;;;;;7.33;2.73;;;3.20;99.90;;;;;;4991486;28;20208;-80
2022/02/07 07:20:19;;;;;;;4.73;1.27;;;3.20;99.90;;;;;;4992460;28;20238;-80
2022/02/07 07:22:45;;;;;;;8.63;2.47;;;3.20;99.90;;;;;;4974086;28;20184;-77
2022/02/07 07:25:15;;;;;;;5.77;1.53;;;3.20;99.90;;;;;;4973716;28;20219;-77
2022/02/07 07:27:58;;;;;;;7.17;1.03;;;3.20;99.90;;;;;;4990084;28;20211;-79
2022/02/07 07:30:26;;;;;;;5.83;1.47;;;3.20;99.90;;;;;;4972812;28;20184;-79
2022/02/07 07:32:55;;;;;;;4.93;1.03;;;3.20;99.90;;;;;;4990838;28;20697;-74
2022/02/07 07:35:21;;;;;;;6.00;1.30;;;3.10;99.90;;;;;;4990761;28;20188;-77
2022/02/07 07:37:46;;;;;;;5.73;0.93;;;3.10;99.90;;;;;;4990914;28;20208;-81
2022/02/07 07:40:12;;;;;;;5.17;1.27;;;3.00;99.90;;;;;;4989967;28;20488;-81
2022/02/07 07:42:38;;;;;;;5.17;1.40;;;3.00;99.90;;;;;;4972622;28;20330;-79
2022/02/07 07:45:04;;;;;;;10.97;1.33;;;3.00;99.90;;;;;;4990107;28;20188;-73
2022/02/07 07:47:31;;;;;;;3.90;1.53;;;3.10;99.90;;;;;;4990771;28;20228;-78
2022/02/07 07:50:08;;;;;;;4.00;0.90;;;3.00;99.90;;;;;;4990537;28;20657;-79
2022/02/07 08:03:38;;;;;;;6.13;1.20;;;3.40;99.90;;;;;;4989681;28;20218;-78
2022/02/07 08:06:18;;;;;;;6.10;1.57;;;3.30;99.90;;;;;;4972113;28;20180;-76
2022/02/07 08:09:15;;;;;;;6.00;1.47;;;3.30;99.90;;;;;;4988117;28;20258;-80
2022/02/07 08:11:33;;;;;;;4.17;1.63;;;3.30;99.90;;;;;;4987728;28;20839;-79
2022/02/07 08:13:59;;;;;;;4.47;1.00;;;3.20;99.90;;;;;;4987277;28;20683;-80
2022/02/07 08:16:25;;;;;;;2.93;1.10;;;3.20;99.90;;;;;;4986186;28;20235;-79
2022/02/07 08:18:50;;;;;;;2.97;0.93;;;3.30;99.90;;;;;;4983720;28;20295;-78
2022/02/07 08:21:16;;;;;;;3.93;0.97;;;3.30;99.90;;;;;;4966093;28;20188;-80
2022/02/07 08:23:43;;;;;;;5.03;1.00;;;3.30;99.90;;;;;;4986658;28;20187;-77
2022/02/07 08:26:10;;;;;;;4.03;1.23;;;3.40;99.90;;;;;;4989753;28;20180;-77
2022/02/07 08:28:36;;;;;;;2.53;1.50;;;3.40;99.90;;;;;;4972881;28;20297;-80
2022/02/07 08:31:02;;;;;;;3.50;0.90;;;3.40;99.90;;;;;;4986639;28;20184;-77
2022/02/07 08:33:28;;;;;;;3.37;0.90;;;3.50;99.90;;;;;;4986832;28;20193;-82
2022/02/07 08:35:54;;;;;;;4.77;1.20;;;3.60;99.90;;;;;;4970921;28;20872;-81
2022/02/07 08:38:20;;;;;;;6.40;1.50;;;3.60;99.90;;;;;;4971210;28;20208;-79
2022/02/07 08:40:49;;;;;;;4.67;1.40;;;3.60;99.90;;;;;;4972202;28;20176;-80
2022/02/07 08:43:15;;;;;;;6.10;1.37;;;3.60;99.90;;;;;;4989089;28;20194;-80
2022/02/07 08:45:41;;;;;;;5.70;1.73;;;3.70;99.90;;;;;;4971389;28;20188;-78
2022/02/07 08:48:09;;;;;;;4.43;1.30;;;3.80;99.90;;;;;;4990882;28;20299;-81
2022/02/07 08:50:34;;;;;;;10.20;1.60;;;3.90;99.90;;;;;;4987108;28;20283;-79
2022/02/07 08:53:02;;;;;;;5.37;1.07;;;4.10;99.90;;;;;;4988118;28;20262;-78
2022/02/07 08:55:37;;;;;;;5.33;1.30;;;4.20;99.90;;;;;;4969986;28;20859;-79
2022/02/07 08:58:10;;;;;;;4.00;1.40;;;4.20;99.90;;;;;;4988758;28;20204;-80
2022/02/07 09:03:30;;;;;;;6.03;1.20;;;4.30;99.90;;;;;;4987865;28;20184;-81
2022/02/07 09:06:26;;;;;;;3.13;1.30;;;4.40;99.90;;;;;;4987623;28;20187;-79
2022/02/07 09:09:10;;;;;;;5.67;1.23;;;4.30;99.90;;;;;;4967786;28;20208;-79
2022/02/07 09:11:38;;;;;;;7.50;2.00;;;4.40;99.90;;;;;;4969430;28;20180;-80
2022/02/07 09:14:10;;;;;;;3.63;1.27;;;4.70;99.90;;;;;;4969574;28;20195;-77
2022/02/07 09:16:37;;;;;;;6.10;1.57;;;4.90;99.90;;;;;;4969973;28;20344;-76
2022/02/07 09:19:04;;;;;;;8.63;1.77;;;5.10;99.90;;;;;;4987433;28;20239;-78
2022/02/07 09:21:30;;;;;;;5.73;1.40;;;5.40;99.90;;;;;;4987356;28;20219;-77
2022/02/07 09:23:57;;;;;;;7.40;2.03;;;5.40;99.90;;;;;;4988056;28;20180;-79
2022/02/07 09:26:23;;;;;;;7.37;1.67;;;5.40;99.90;;;;;;4987928;28;20199;-78
2022/02/07 09:28:49;;;;;;;5.70;1.80;;;5.20;99.90;;;;;;4986027;28;20580;-80
2022/02/07 09:31:15;;;;;;;4.90;2.03;;;5.20;99.90;;;;;;4985035;28;20188;-79
2022/02/07 09:33:44;;;;;;;4.83;1.40;;;5.10;99.90;;;;;;4984934;28;20184;-79
2022/02/07 09:36:11;;;;;;;6.47;2.60;;;5.00;99.90;;;;;;4984330;28;20184;-77
2022/02/07 09:38:36;;;;;;;7.77;2.10;;;5.00;99.90;;;;;;4984569;28;20351;-79
2022/02/07 09:41:02;;;;;;;8.70;1.60;;;5.00;99.90;;;;;;4984889;28;20267;-78
2022/02/07 09:43:32;;;;;;;6.53;2.20;;;4.90;99.90;;;;;;4984036;28;20749;-79
2022/02/07 09:46:11;;;;;;;7.63;2.20;;;4.80;99.90;;;;;;4984003;28;20714;-78
2022/02/07 09:48:40;;;;;;;6.00;1.90;;;4.80;99.90;;;;;;4983718;28;20208;-78
2022/02/07 09:51:07;;;;;;;5.93;1.77;;;4.90;99.90;;;;;;4982435;28;20248;-78
2022/02/07 09:53:34;;;;;;;6.37;2.30;;;4.90;99.90;;;;;;4984424;28;20559;-80
2022/02/07 09:56:04;;;;;;;8.63;1.93;;;4.90;99.90;;;;;;4985126;28;20254;-79
2022/02/07 09:58:32;;;;;;;7.23;1.90;;;4.90;99.90;;;;;;4984343;28;20217;-79
2022/02/07 10:01:01;;;;;;;6.23;1.80;;;5.00;99.90;;;;;;4985290;28;20172;-80
2022/02/07 10:03:33;;;;;;;9.60;1.57;;;4.90;99.90;;;;;;4967114;28;20665;-79
2022/02/07 10:06:11;;;;;;;7.07;1.90;;;5.00;99.90;;;;;;4984984;28;20168;-78
2022/02/07 10:08:55;;;;;;;4.90;1.60;;;5.00;99.90;;;;;;4984228;28;20207;-78
2022/02/07 10:11:48;;;;;;;5.97;1.80;;;5.00;99.90;;;;;;4984288;28;20180;-78
2022/02/07 10:14:25;;;;;;;10.63;2.10;;;5.00;99.90;;;;;;4984090;28;20180;-79
2022/02/07 10:17:03;;;;;;;9.40;2.60;;;4.90;99.90;;;;;;4967273;28;20636;-80
2022/02/07 10:19:49;;;;;;;5.20;1.67;;;4.80;99.90;;;;;;4967485;28;20696;-78
2022/02/07 10:36:50;;;;;;;9.07;1.83;;;5.20;99.90;;;;;;4992939;28;20226;-78
2022/02/07 10:39:27;;;;;;;4.50;1.73;;;5.40;99.90;;;;;;4991411;28;20222;-78
2022/02/07 10:42:29;;;;;;;13.83;2.33;;;5.60;99.90;;;;;;4991185;28;20262;-78
2022/02/07 10:44:49;;;;;;;6.00;1.30;;;5.60;99.90;;;;;;4991101;28;20307;-78
2022/02/07 10:47:24;;;;;;;5.87;1.83;;;5.70;99.90;;;;;;4991840;28;20222;-75
2022/02/07 10:50:04;;;;;;;8.87;1.70;;;5.70;99.90;;;;;;4976238;28;20283;-74
2022/02/07 10:52:56;;;;;;;9.30;2.20;;;6.00;99.90;;;;;;4993741;28;20211;-79
2022/02/07 10:55:28;;;;;;;8.50;1.53;;;6.20;99.90;;;;;;4991953;28;20733;-78
2022/02/07 10:57:56;;;;;;;11.13;2.67;;;6.40;99.90;;;;;;4992724;28;20658;-81
2022/02/07 11:00:33;;;;;;;13.27;2.50;;;6.40;99.90;;;;;;4991746;28;20185;-77
2022/02/07 11:05:35;;;;;;;10.87;2.40;;;6.50;99.90;;;;;;4992841;28;20217;-81
2022/02/07 11:08:18;;;;;;;14.07;2.13;;;6.30;99.90;;;;;;4991937;28;20235;-78
2022/02/07 11:16:07;;;;;;;8.33;2.00;;;6.10;99.90;;;;;;4992379;28;20188;-79
2022/02/07 11:19:00;;;;;;;10.93;2.40;;;6.00;99.90;;;;;;4992478;28;20226;-80
2022/02/07 11:21:48;;;;;;;11.73;2.10;;;6.00;99.90;;;;;;4974972;28;20184;-78
2022/02/07 11:24:38;;;;;;;11.20;2.00;;;6.00;99.90;;;;;;4975729;28;21089;-77
2022/02/07 11:27:27;;;;;;;10.63;2.30;;;6.00;99.90;;;;;;4975371;28;20323;-77
2022/02/07 11:29:53;;;;;;;10.77;2.20;;;6.10;99.90;;;;;;4985190;28;20304;-78
2022/02/07 11:32:47;;;;;;;18.03;2.70;;;6.10;99.90;;;;;;4993560;28;20212;-80
2022/02/07 11:35:26;;;;;;;7.80;1.83;;;6.20;99.90;;;;;;4988954;28;20196;-79
2022/02/07 11:38:13;;;;;;;7.83;2.47;;;6.20;99.90;;;;;;4977220;28;20306;-82
2022/02/07 11:40:57;;;;;;;2.37;1.00;;;5.90;99.90;;;;;;4977439;28;20180;-79
2022/02/07 11:43:24;;;;;;;4.17;1.07;;;5.60;99.90;;;;;;4995702;28;20207;-78
2022/02/07 11:46:00;;;;;;;6.73;1.33;;;5.50;99.90;;;;;;4994748;28;20198;-79
2022/02/07 11:48:25;;;;;;;1.23;0.53;;;5.30;99.90;;;;;;4994669;28;20271;-77
2022/02/07 11:50:55;;;;;;;3.30;0.70;;;5.00;99.90;;;;;;4977698;28;20554;-79
2022/02/07 11:53:26;;;;;;;3.13;0.80;;;4.60;99.90;;;;;;4993871;28;20198;-77
2022/02/07 11:56:24;;;;;;;1.90;0.50;;;4.40;99.90;;;;;;4994095;28;20239;-79
2022/02/07 11:59:02;;;;;;;2.77;0.53;;;4.10;99.90;;;;;;4975333;28;20275;-78
2022/02/07 12:01:49;;;;;;;3.23;0.73;;;3.90;99.90;;;;;;4991992;28;20180;-78
2022/02/07 12:04:37;;;;;;;3.03;0.60;;;3.80;99.90;;;;;;4991073;28;20693;-77
2022/02/07 12:07:16;;;;;;;2.57;1.10;;;3.70;99.90;;;;;;4987952;28;20714;-81
2022/02/07 12:10:05;;;;;;;0.90;0.70;;;4.00;99.90;;;;;;4971586;28;20515;-78
2022/02/07 12:12:47;;;;;;;2.87;1.07;;;4.30;99.90;;;;;;4986759;28;20185;-80
2022/02/07 12:15:13;;;;;;;3.10;0.80;;;4.50;99.90;;;;;;4984672;28;20184;-79
2022/02/07 12:17:49;;;;;;;4.20;0.93;;;4.60;99.90;;;;;;4967483;28;20224;-79
2022/02/07 12:20:20;;;;;;;5.40;1.50;;;4.60;99.90;;;;;;4991875;28;20646;-81
2022/02/07 12:22:50;;;;;;;5.13;1.53;;;4.70;99.90;;;;;;4991044;28;20177;-81
2022/02/07 12:25:23;;;;;;;3.40;1.40;;;4.80;99.90;;;;;;4990828;28;20187;-78
2022/02/07 12:27:51;;;;;;;6.43;1.17;;;5.00;99.90;;;;;;4988322;28;20208;-80
2022/02/07 12:30:17;;;;;;;11.53;1.73;;;5.10;99.90;;;;;;4987958;28;20246;-77
2022/02/07 12:32:46;;;;;;;5.03;1.40;;;5.20;99.90;;;;;;4971386;28;20238;-78
2022/02/07 12:35:12;;;;;;;6.50;1.60;;;5.40;99.90;;;;;;4970692;28;20206;-78
2022/02/07 12:37:40;;;;;;;10.00;2.57;;;5.60;99.90;;;;;;4970142;28;20204;-80
2022/02/07 12:40:08;;;;;;;7.00;2.10;;;5.80;99.90;;;;;;4955073;28;20196;-79
2022/02/07 12:42:35;;;;;;;7.77;2.23;;;6.10;99.90;;;;;;4971944;28;20191;-78
2022/02/07 12:45:03;;;;;;;8.23;1.27;;;6.20;99.90;;;;;;4971697;28;20180;-78
2022/02/07 12:47:28;;;;;;;5.40;1.50;;;6.10;99.90;;;;;;4989139;28;20227;-78
2022/02/07 12:49:56;;;;;;;5.77;1.23;;;6.00;99.90;;;;;;4989637;28;20188;-78
2022/02/07 12:52:38;;;;;;;5.17;2.17;;;5.60;99.90;;;;;;4971175;28;20199;-76
2022/02/07 12:55:06;;;;;;;6.37;1.20;;;5.00;99.90;;;;;;4969869;28;20283;-77
2022/02/07 12:57:39;;;;;;;4.13;0.83;;;4.40;99.90;;;;;;4970612;28;20204;-78
2022/02/07 13:00:07;;;;;;;2.33;1.10;;;3.80;99.90;;;;;;4987572;28;20263;-78
2022/02/07 13:02:33;;;;;;;3.50;0.80;;;3.50;99.90;;;;;;4970657;28;20192;-77
2022/02/07 13:04:58;;;;;;;3.90;1.07;;;3.30;99.90;;;;;;4988166;28;20188;-78
2022/02/07 13:07:26;;;;;;;2.63;1.03;;;3.10;99.90;;;;;;4986331;28;20207;-78
2022/02/07 13:09:56;;;;;;;4.43;1.30;;;3.10;99.90;;;;;;4987406;28;20231;-78
2022/02/07 13:12:39;;;;;;;7.00;2.10;;;3.10;99.90;;;;;;4985785;28;20178;-78
2022/02/07 13:15:13;;;;;;;6.07;1.73;;;3.30;99.90;;;;;;4967536;28;20254;-78
2022/02/07 13:17:39;;;;;;;5.97;1.57;;;3.30;99.90;;;;;;4985688;28;20211;-78
2022/02/07 13:20:07;;;;;;;5.03;1.57;;;3.40;99.90;;;;;;4986420;28;20188;-78
2022/02/07 13:22:32;;;;;;;3.77;1.70;;;3.50;99.90;;;;;;4986040;28;20180;-79
2022/02/07 13:24:58;;;;;;;6.60;1.27;;;3.70;99.90;;;;;;4985513;28;20177;-78
2022/02/07 13:27:24;;;;;;;4.60;1.40;;;3.80;99.90;;;;;;4968043;28;20227;-78
2022/02/07 13:29:54;;;;;;;6.40;1.73;;;3.90;99.90;;;;;;4985799;28;20181;-78
2022/02/07 13:32:26;;;;;;;6.90;1.83;;;4.00;99.90;;;;;;4986110;28;20172;-78
2022/02/07 13:35:06;;;;;;;4.27;1.10;;;4.00;99.90;;;;;;4968194;28;20195;-78
2022/02/07 13:37:35;;;;;;;6.80;1.87;;;4.10;99.90;;;;;;4968627;28;20200;-79
2022/02/07 13:40:21;;;;;;;4.00;1.57;;;4.20;99.90;;;;;;4985300;28;20179;-79
2022/02/07 13:42:49;;;;;;;7.47;1.10;;;4.20;99.90;;;;;;4967002;28;20184;-78
2022/02/07 13:45:17;;;;;;;5.90;1.27;;;4.30;99.90;;;;;;4966675;28;20373;-77
2022/02/07 13:47:51;;;;;;;4.50;1.43;;;4.30;99.90;;;;;;4984083;28;20238;-78
2022/02/07 13:50:20;;;;;;;6.27;1.47;;;4.30;99.90;;;;;;4967373;28;20188;-77
2022/02/07 13:52:48;;;;;;;4.17;1.00;;;4.30;99.90;;;;;;4966986;28;20184;-78
2022/02/07 13:55:18;;;;;;;5.33;1.20;;;4.30;99.90;;;;;;4983531;28;20271;-78
2022/02/07 13:58:03;;;;;;;5.13;0.90;;;4.40;99.90;;;;;;4984083;28;20315;-77
2022/02/07 14:00:32;;;;;;;3.70;0.93;;;4.40;99.90;;;;;;4988109;28;20180;-79
2022/02/07 14:03:22;;;;;;;4.63;1.00;;;4.70;99.90;;;;;;4987879;28;20180;-77
2022/02/07 14:05:56;;;;;;;5.73;0.93;;;4.70;99.90;;;;;;4988304;28;20239;-77
2022/02/07 14:08:40;;;;;;;4.03;1.27;;;4.80;99.90;;;;;;4989635;28;20300;-76
2022/02/07 14:11:08;;;;;;;4.17;1.27;;;5.00;99.90;;;;;;4971179;28;20191;-77
2022/02/07 14:13:36;;;;;;;2.70;1.13;;;5.00;99.90;;;;;;4989046;28;20537;-79
2022/02/07 14:16:07;;;;;;;4.17;1.23;;;5.00;99.90;;;;;;4988845;28;20176;-77
2022/02/07 14:18:35;;;;;;;4.03;1.23;;;4.90;99.90;;;;;;4988512;28;20220;-78
2022/02/07 14:21:08;;;;;;;3.57;1.13;;;4.90;99.90;;;;;;4988511;28;20211;-79
2022/02/07 14:23:34;;;;;;;5.23;1.30;;;4.90;99.90;;;;;;4990533;28;20325;-79
2022/02/07 14:26:01;;;;;;;4.37;0.93;;;4.90;99.90;;;;;;4991016;28;20594;-78
2022/02/07 14:28:27;;;;;;;3.77;0.90;;;4.80;99.90;;;;;;4988313;28;20215;-78
2022/02/07 14:30:54;;;;;;;4.10;0.83;;;4.60;99.90;;;;;;4989497;28;20232;-78
2022/02/07 14:33:19;;;;;;;3.13;0.90;;;4.40;99.90;;;;;;4990072;28;20192;-78
2022/02/07 14:35:45;;;;;;;1.40;0.50;;;4.10;99.90;;;;;;4989619;28;20177;-78
2022/02/07 14:38:11;;;;;;;2.70;0.80;;;3.80;99.90;;;;;;4990481;28;20291;-78
2022/02/07 14:40:40;;;;;;;3.40;0.97;;;3.80;99.90;;;;;;4990846;28;20267;-78
2022/02/07 14:43:10;;;;;;;2.83;0.70;;;3.80;99.90;;;;;;4972316;28;20181;-78
2022/02/07 14:45:53;;;;;;;0.93;0.80;;;3.60;99.90;;;;;;4990152;28;20176;-78
2022/02/07 14:48:19;;;;;;;2.57;0.73;;;3.50;99.90;;;;;;4990037;28;20266;-79
2022/02/07 14:50:44;;;;;;;4.47;0.97;;;3.50;99.90;;;;;;4990679;28;20188;-79
2022/02/07 14:53:13;;;;;;;3.50;1.00;;;3.50;99.90;;;;;;4992432;28;20188;-79
2022/02/07 14:55:39;;;;;;;2.23;0.80;;;3.60;99.90;;;;;;4990166;28;20267;-79
2022/02/07 14:58:05;;;;;;;3.87;0.60;;;3.60;99.90;;;;;;4990732;28;20722;-79
2022/02/07 15:00:30;;;;;;;4.03;0.80;;;3.60;99.90;;;;;;4990093;28;20236;-79
2022/02/07 15:02:58;;;;;;;2.13;0.80;;;3.50;99.90;;;;;;4973330;28;20244;-79
2022/02/07 15:05:25;;;;;;;2.20;0.73;;;3.30;99.90;;;;;;4989321;28;20206;-79
2022/02/07 15:07:52;;;;;;;2.03;0.80;;;3.10;99.90;;;;;;4990994;28;20203;-77
2022/02/07 15:10:18;;;;;;;1.70;0.90;;;3.00;99.90;;;;;;4986199;28;20195;-79
2022/02/07 15:12:45;;;;;;;1.67;0.80;;;2.80;99.90;;;;;;4988737;28;20243;-77
2022/02/07 15:15:11;;;;;;;1.57;0.80;;;2.80;99.90;;;;;;4990462;28;20188;-79
2022/02/07 15:17:37;;;;;;;3.23;0.80;;;2.70;99.90;;;;;;4973347;28;20208;-79
2022/02/07 15:20:05;;;;;;;5.80;2.53;;;2.70;99.90;;;;;;4991413;28;20188;-78
2022/02/07 15:22:31;;;;;;;3.17;1.50;;;2.70;99.90;;;;;;4992696;28;20616;-79